createdAt,value
2022-12-06T00:00:09.686Z,3.38
2022-12-06T00:02:37.783Z,3.24
2022-12-06T00:05:06.293Z,3.12
2022-12-06T00:07:35.643Z,3.13
2022-12-06T00:10:03.605Z,3.15
2022-12-06T00:12:31.904Z,3.23
2022-12-06T00:14:59.829Z,3.31
2022-12-06T00:17:28.386Z,3.30
2022-12-06T00:19:56.448Z,3.38
2022-12-06T00:22:24.685Z,3.36
2022-12-06T00:24:54.009Z,3.19
2022-12-06T00:27:21.917Z,3.12
2022-12-06T00:29:50.124Z,3.14
2022-12-06T00:32:19.871Z,3.14
2022-12-06T00:34:47.967Z,3.28
2022-12-06T00:37:15.912Z,3.27
2022-12-06T00:39:43.825Z,3.27
2022-12-06T00:42:13.201Z,3.40
2022-12-06T00:44:41.125Z,3.36
2022-12-06T00:47:09.091Z,3.37
2022-12-06T00:49:37.055Z,3.49
2022-12-06T00:52:05.442Z,3.43
2022-12-06T00:54:33.382Z,3.37
2022-12-06T00:57:01.330Z,3.45
2022-12-06T00:59:30.612Z,3.48
2022-12-06T01:01:58.882Z,3.44
2022-12-06T01:04:26.769Z,3.48
2022-12-06T01:06:54.866Z,3.39
2022-12-06T01:09:22.948Z,3.35
2022-12-06T01:11:50.799Z,3.49
2022-12-06T01:14:18.643Z,3.37
2022-12-06T01:16:48.106Z,3.45
2022-12-06T01:19:16.081Z,3.41
2022-12-06T01:21:43.932Z,3.53
2022-12-06T01:24:11.838Z,3.54
2022-12-06T01:26:39.697Z,3.51
2022-12-06T01:29:07.618Z,3.62
2022-12-06T01:31:38.998Z,3.57
2022-12-06T01:34:14.601Z,3.61
2022-12-06T01:36:42.515Z,3.62
2022-12-06T01:39:11.409Z,3.64
2022-12-06T01:41:40.146Z,3.57
2022-12-06T01:44:08.656Z,3.71
2022-12-06T01:46:40.793Z,3.76
2022-12-06T01:49:18.280Z,3.73
2022-12-06T01:51:50.522Z,3.69
2022-12-06T01:54:21.039Z,3.71
2022-12-06T01:56:50.661Z,3.70
2022-12-06T01:59:18.875Z,3.65
2022-12-06T02:01:47.965Z,3.84
2022-12-06T02:04:18.289Z,3.76
2022-12-06T02:06:47.819Z,3.76
2022-12-06T02:09:18.223Z,3.72
2022-12-06T02:11:47.356Z,3.73
2022-12-06T02:14:18.840Z,3.84
2022-12-06T02:16:59.194Z,3.71
2022-12-06T02:20:03.740Z,3.73
2022-12-06T02:22:50.123Z,3.80
2022-12-06T02:25:47.806Z,3.73
2022-12-06T02:28:38.227Z,3.76
2022-12-06T02:31:12.262Z,3.76
2022-12-06T02:33:47.042Z,3.77
2022-12-06T02:36:23.664Z,3.69
2022-12-06T02:38:55.151Z,3.77
2022-12-06T02:41:28.410Z,3.83
2022-12-06T02:43:59.928Z,3.74
2022-12-06T02:46:34.627Z,3.78
2022-12-06T02:49:05.184Z,3.87
2022-12-06T02:51:36.050Z,3.80
2022-12-06T02:54:09.937Z,3.70
2022-12-06T02:56:37.811Z,3.79
2022-12-06T02:59:05.917Z,3.69
2022-12-06T03:01:42.024Z,3.62
2022-12-06T03:04:46.590Z,3.74
2022-12-06T03:07:32.875Z,3.72
2022-12-06T03:10:26.404Z,3.79
2022-12-06T03:13:05.550Z,3.77
2022-12-06T03:15:41.062Z,3.90
2022-12-06T03:18:17.350Z,3.81
2022-12-06T03:20:51.024Z,4.04
2022-12-06T03:23:24.722Z,3.79
2022-12-06T03:25:54.611Z,3.69
2022-12-06T03:28:23.253Z,3.77
2022-12-06T03:30:54.313Z,3.73
2022-12-06T03:33:27.232Z,3.64
2022-12-06T03:35:56.297Z,3.78
2022-12-06T03:38:30.528Z,3.63
2022-12-06T03:41:02.461Z,3.46
2022-12-06T03:43:30.751Z,3.48
2022-12-06T03:46:05.417Z,3.51
2022-12-06T03:48:39.841Z,3.48
2022-12-06T03:51:11.293Z,3.31
2022-12-06T03:53:47.836Z,3.45
2022-12-06T03:56:16.090Z,3.59
2022-12-06T03:58:43.951Z,3.60
2022-12-06T04:01:11.797Z,3.50
2022-12-06T04:03:41.122Z,3.47
2022-12-06T04:06:10.125Z,3.46
2022-12-06T04:08:38.401Z,3.50
2022-12-06T04:11:06.687Z,3.47
2022-12-06T04:13:35.674Z,3.29
2022-12-06T04:16:04.045Z,3.40
2022-12-06T04:18:30.921Z,3.47
2022-12-06T04:21:19.828Z,3.46
2022-12-06T04:23:50.416Z,3.49
2022-12-06T04:26:20.752Z,3.54
2022-12-06T04:29:06.647Z,3.47
2022-12-06T04:31:52.198Z,3.70
2022-12-06T04:34:37.569Z,3.57
2022-12-06T04:37:25.128Z,3.74
2022-12-06T04:39:53.004Z,3.67
2022-12-06T04:42:38.403Z,3.66
2022-12-06T04:45:07.214Z,3.65
2022-12-06T04:47:35.095Z,3.65
2022-12-06T04:50:03.260Z,3.70
2022-12-06T04:52:35.689Z,3.81
2022-12-06T04:55:04.997Z,3.78
2022-12-06T04:57:32.964Z,3.68
2022-12-06T05:00:01.168Z,3.62
2022-12-06T05:02:29.245Z,3.66
2022-12-06T05:04:57.445Z,3.83
2022-12-06T05:07:25.275Z,3.72
2022-12-06T05:09:54.504Z,3.67
2022-12-06T05:12:22.431Z,3.71
2022-12-06T05:14:50.305Z,3.81
2022-12-06T05:17:18.330Z,3.80
2022-12-06T05:19:46.194Z,3.56
2022-12-06T05:22:14.042Z,3.62
2022-12-06T05:24:41.896Z,3.64
2022-12-06T05:27:11.174Z,3.73
2022-12-06T05:29:39.040Z,3.74
2022-12-06T05:32:07.721Z,3.81
2022-12-06T05:34:35.538Z,3.85
2022-12-06T05:37:03.414Z,3.77
2022-12-06T05:39:31.297Z,3.81
2022-12-06T05:41:59.166Z,3.79
2022-12-06T05:44:28.382Z,3.81
2022-12-06T05:46:56.268Z,3.81
2022-12-06T05:49:24.156Z,3.73
2022-12-06T05:51:52.004Z,3.81
2022-12-06T05:54:20.502Z,3.78
2022-12-06T05:56:50.927Z,3.86
2022-12-06T05:59:18.994Z,3.84
2022-12-06T06:01:48.275Z,3.71
2022-12-06T06:04:16.222Z,3.73
2022-12-06T06:06:44.114Z,3.73
2022-12-06T06:09:11.951Z,3.67
2022-12-06T06:11:39.794Z,3.78
2022-12-06T06:14:07.667Z,3.78
2022-12-06T06:16:35.574Z,3.72
2022-12-06T06:19:04.859Z,3.79
2022-12-06T06:21:33.588Z,3.74
2022-12-06T06:24:01.529Z,3.86
2022-12-06T06:26:29.829Z,3.89
2022-12-06T06:28:57.851Z,3.77
2022-12-06T06:31:25.733Z,3.81
2022-12-06T06:33:53.735Z,3.74
2022-12-06T06:36:22.977Z,3.85
2022-12-06T06:38:50.831Z,3.73
2022-12-06T06:41:18.917Z,3.76
2022-12-06T06:43:46.740Z,3.79
2022-12-06T06:46:14.681Z,3.65
2022-12-06T06:48:42.656Z,3.62
2022-12-06T06:51:12.233Z,3.69
2022-12-06T06:53:42.003Z,3.61
2022-12-06T06:56:10.368Z,3.61
2022-12-06T06:58:38.269Z,3.56
2022-12-06T07:01:08.292Z,3.40
2022-12-06T07:03:37.014Z,3.31
2022-12-06T07:06:09.099Z,3.32
2022-12-06T07:08:37.061Z,3.36
2022-12-06T07:11:06.708Z,3.33
2022-12-06T07:13:34.744Z,3.46
2022-12-06T07:16:04.861Z,3.33
2022-12-06T07:18:33.451Z,3.39
2022-12-06T07:21:03.854Z,3.32
2022-12-06T07:23:33.184Z,3.30
2022-12-06T07:26:02.687Z,3.24
2022-12-06T07:28:31.974Z,3.21
2022-12-06T07:30:59.924Z,3.21
2022-12-06T07:33:27.853Z,3.14
2022-12-06T07:36:12.801Z,3.17
2022-12-06T07:38:42.311Z,3.12
2022-12-06T07:41:30.934Z,3.04
2022-12-06T07:44:20.100Z,3.09
2022-12-06T07:46:48.830Z,3.19
2022-12-06T07:49:18.013Z,3.24
2022-12-06T07:51:46.851Z,3.20
2022-12-06T07:54:15.084Z,3.21
2022-12-06T07:56:43.982Z,3.25
2022-12-06T07:59:13.683Z,3.30
2022-12-06T08:01:41.937Z,3.34
2022-12-06T08:04:10.843Z,3.27
2022-12-06T08:06:38.869Z,3.25
2022-12-06T08:09:07.303Z,3.37
2022-12-06T08:11:35.663Z,3.30
2022-12-06T08:14:04.030Z,3.15
2022-12-06T08:16:33.343Z,3.20
2022-12-06T08:19:01.485Z,3.26
2022-12-06T08:21:29.478Z,3.29
2022-12-06T08:23:57.584Z,3.25
2022-12-06T08:26:25.519Z,3.25
2022-12-06T08:28:53.592Z,3.28
2022-12-06T08:31:24.065Z,3.34
2022-12-06T08:33:53.367Z,3.28
2022-12-06T08:36:22.965Z,3.23
2022-12-06T08:38:52.173Z,3.19
2022-12-06T08:41:40.226Z,3.11
2022-12-06T08:44:11.424Z,3.17
2022-12-06T08:46:39.680Z,3.22
2022-12-06T08:49:09.001Z,3.14
2022-12-06T08:51:37.580Z,3.20
2022-12-06T08:54:06.779Z,3.17
2022-12-06T08:56:34.920Z,3.12
2022-12-06T08:59:02.868Z,3.12
2022-12-06T09:01:37.855Z,3.20
2022-12-06T09:04:09.397Z,3.27
2022-12-06T09:06:39.324Z,3.33
2022-12-06T09:09:07.870Z,3.32
2022-12-06T09:11:35.756Z,3.33
2022-12-06T09:14:03.722Z,3.32
2022-12-06T09:16:32.117Z,3.36
2022-12-06T09:19:00.032Z,3.42
2022-12-06T09:21:30.631Z,3.40
2022-12-06T09:23:59.557Z,3.45
2022-12-06T09:26:28.307Z,3.44
2022-12-06T09:28:57.611Z,3.51
2022-12-06T09:31:26.446Z,3.56
2022-12-06T09:33:54.385Z,3.62
2022-12-06T09:36:24.994Z,3.52
2022-12-06T09:38:58.420Z,3.58
2022-12-06T09:42:09.439Z,3.58
2022-12-06T09:44:56.649Z,3.57
2022-12-06T09:47:36.269Z,3.50
2022-12-06T09:50:13.471Z,3.56
2022-12-06T09:52:57.189Z,3.58
2022-12-06T09:55:39.435Z,3.59
2022-12-06T09:58:18.731Z,3.69
2022-12-06T10:00:50.443Z,3.67
2022-12-06T10:03:37.895Z,3.72
2022-12-06T10:06:13.060Z,3.79
2022-12-06T10:09:01.620Z,3.83
2022-12-06T10:11:49.369Z,3.70
2022-12-06T10:14:30.498Z,3.76
2022-12-06T10:17:09.428Z,3.72
2022-12-06T10:19:51.328Z,3.81
2022-12-06T10:22:31.632Z,3.65
2022-12-06T10:25:07.464Z,3.61
2022-12-06T10:27:39.870Z,3.65
2022-12-06T10:30:11.483Z,3.55
2022-12-06T10:32:52.706Z,3.65
2022-12-06T10:35:34.278Z,3.61
2022-12-06T10:38:12.311Z,3.58
2022-12-06T10:40:51.633Z,3.60
2022-12-06T10:43:27.084Z,3.47
2022-12-06T10:46:24.119Z,3.54
2022-12-06T10:49:01.884Z,3.52
2022-12-06T10:51:36.952Z,3.46
2022-12-06T10:54:14.479Z,3.75
2022-12-06T10:56:44.473Z,3.72
2022-12-06T10:59:24.928Z,3.89
2022-12-06T11:01:54.240Z,3.87
2022-12-06T11:04:26.485Z,3.80
2022-12-06T11:06:59.749Z,3.64
2022-12-06T11:09:39.006Z,3.53
2022-12-06T11:12:24.176Z,3.54
2022-12-06T11:14:59.770Z,3.62
2022-12-06T11:17:31.073Z,3.66
2022-12-06T11:20:04.780Z,3.71
2022-12-06T11:22:41.996Z,3.83
2022-12-06T11:25:18.996Z,3.88
2022-12-06T11:27:53.632Z,3.94
2022-12-06T11:30:23.112Z,3.74
2022-12-06T11:32:52.972Z,3.70
2022-12-06T11:35:23.089Z,3.60
2022-12-06T11:37:55.220Z,3.73
2022-12-06T11:40:27.784Z,3.71
2022-12-06T11:42:57.786Z,3.73
2022-12-06T11:45:31.016Z,3.80
2022-12-06T11:48:01.952Z,3.76
2022-12-06T11:50:31.547Z,3.73
2022-12-06T11:53:03.897Z,3.81
2022-12-06T11:55:37.852Z,3.73
2022-12-06T11:58:10.690Z,3.95
2022-12-06T12:00:57.615Z,3.90
2022-12-06T12:03:29.954Z,3.80
2022-12-06T12:06:26.534Z,3.90
2022-12-06T12:09:01.123Z,3.79
2022-12-06T12:11:32.230Z,3.82
2022-12-06T12:14:04.043Z,3.88
2022-12-06T12:16:37.451Z,3.73
2022-12-06T12:19:21.830Z,3.79
2022-12-06T12:21:54.300Z,3.87
2022-12-06T12:27:45.235Z,3.98
2022-12-06T12:30:26.357Z,4.03
2022-12-06T12:33:15.179Z,3.85
2022-12-06T12:35:45.159Z,4.13
2022-12-06T12:38:22.183Z,4.04
2022-12-06T12:40:53.406Z,4.16
2022-12-06T12:43:24.317Z,4.13
2022-12-06T12:46:17.823Z,3.92
2022-12-06T12:48:49.559Z,4.09
2022-12-06T12:51:34.112Z,4.08
2022-12-06T12:54:04.894Z,4.06
2022-12-06T12:56:36.091Z,4.19
2022-12-06T12:59:07.831Z,4.01
2022-12-06T13:01:45.004Z,3.99
2022-12-06T13:04:25.027Z,3.93
2022-12-06T13:06:56.985Z,3.84
2022-12-06T13:09:29.269Z,4.04
2022-12-06T13:12:03.502Z,3.92
2022-12-06T13:14:34.029Z,3.98
2022-12-06T13:17:07.933Z,3.94
2022-12-06T13:19:41.712Z,3.86
2022-12-06T13:22:17.448Z,3.99
2022-12-06T13:24:48.445Z,3.91
2022-12-06T13:27:20.809Z,3.95
2022-12-06T13:29:55.312Z,3.97
2022-12-06T13:32:29.182Z,3.88
2022-12-06T13:35:01.011Z,3.91
2022-12-06T13:37:37.197Z,3.86
2022-12-06T13:40:06.869Z,3.98
2022-12-06T13:42:46.797Z,4.00
2022-12-06T13:45:41.571Z,3.97
2022-12-06T13:48:37.343Z,3.84
2022-12-06T13:51:12.778Z,3.86
2022-12-06T13:54:14.135Z,4.02
2022-12-06T13:56:42.627Z,3.84
2022-12-06T13:59:40.671Z,3.94
2022-12-06T14:02:51.061Z,3.91
2022-12-06T14:08:36.296Z,3.88
2022-12-06T14:11:21.302Z,3.84
2022-12-06T14:13:59.684Z,3.94
2022-12-06T14:16:32.688Z,3.86
2022-12-06T14:19:01.354Z,3.78
2022-12-06T14:21:35.878Z,3.90
2022-12-06T14:24:06.102Z,3.76
2022-12-06T14:26:36.152Z,3.67
2022-12-06T14:29:04.106Z,3.73
2022-12-06T14:31:41.065Z,3.66
2022-12-06T14:34:26.410Z,3.67
2022-12-06T14:36:55.086Z,3.66
2022-12-06T14:39:27.341Z,3.69
2022-12-06T14:42:14.691Z,3.70
2022-12-06T14:44:49.365Z,3.73
2022-12-06T14:47:18.853Z,3.74
2022-12-06T14:50:09.642Z,3.72
2022-12-06T14:52:37.849Z,3.55
2022-12-06T14:55:19.115Z,3.54
2022-12-06T14:57:49.146Z,3.62
2022-12-06T15:00:26.675Z,3.69
2022-12-06T15:03:04.692Z,3.71
2022-12-06T15:05:34.524Z,3.69
2022-12-06T15:08:30.369Z,3.56
2022-12-06T15:11:03.119Z,3.53
2022-12-06T15:13:30.177Z,3.58
2022-12-06T15:16:15.258Z,3.60
2022-12-06T15:18:45.930Z,3.58
2022-12-06T15:21:15.261Z,3.73
2022-12-06T15:23:49.788Z,3.57
2022-12-06T15:26:20.673Z,3.60
2022-12-06T15:28:48.973Z,3.59
2022-12-06T15:31:20.175Z,3.50
2022-12-06T15:33:48.750Z,3.50
2022-12-06T15:36:19.163Z,3.46
2022-12-06T15:38:47.316Z,3.51
2022-12-06T15:41:18.965Z,3.50
2022-12-06T15:43:47.064Z,3.38
2022-12-06T15:46:19.998Z,3.49
2022-12-06T15:48:48.517Z,3.44
2022-12-06T15:51:20.971Z,3.45
2022-12-06T15:53:50.022Z,3.38
2022-12-06T15:56:21.841Z,3.39
2022-12-06T15:58:50.771Z,3.46
2022-12-06T16:01:21.515Z,3.43
2022-12-06T16:03:49.520Z,3.36
2022-12-06T16:06:19.271Z,3.41
2022-12-06T16:08:48.431Z,3.39
2022-12-06T16:11:18.541Z,3.30
2022-12-06T16:13:48.054Z,3.39
2022-12-06T16:16:16.616Z,3.37
2022-12-06T16:18:44.796Z,3.42
2022-12-06T16:21:21.494Z,3.44
2022-12-06T16:24:14.168Z,3.41
2022-12-06T16:26:45.220Z,3.40
2022-12-06T16:29:17.036Z,3.46
2022-12-06T16:31:46.796Z,3.52
2022-12-06T16:34:15.794Z,3.44
2022-12-06T16:37:01.423Z,3.44
2022-12-06T16:39:31.078Z,3.52
2022-12-06T16:41:58.945Z,3.38
2022-12-06T16:44:28.771Z,3.52
2022-12-06T16:46:57.069Z,3.47
2022-12-06T16:52:14.988Z,3.29
2022-12-06T16:54:43.001Z,3.23
2022-12-06T16:57:12.255Z,3.31
2022-12-06T16:59:42.411Z,3.30
2022-12-06T17:02:26.445Z,3.28
2022-12-06T17:04:54.713Z,3.20
2022-12-06T17:07:22.791Z,3.28
2022-12-06T17:09:50.731Z,3.19
2022-12-06T17:12:18.877Z,3.22
2022-12-06T17:14:48.226Z,3.18
2022-12-06T17:17:19.251Z,3.15
2022-12-06T17:19:47.227Z,3.28
2022-12-06T17:22:16.821Z,3.37
2022-12-06T17:24:44.970Z,3.24
2022-12-06T17:27:14.743Z,3.23
2022-12-06T17:29:44.043Z,3.32
2022-12-06T17:32:14.364Z,3.34
2022-12-06T17:34:42.487Z,3.32
2022-12-06T17:37:10.779Z,3.22
2022-12-06T17:39:38.695Z,3.28
2022-12-06T17:42:24.777Z,3.29
2022-12-06T17:44:52.952Z,3.24
2022-12-06T17:47:22.379Z,3.22
2022-12-06T17:49:50.257Z,3.12
2022-12-06T17:52:18.475Z,3.19
2022-12-06T17:54:46.296Z,3.18
2022-12-06T17:57:17.262Z,3.26
2022-12-06T17:59:46.565Z,3.26
2022-12-06T18:02:17.269Z,3.14
2022-12-06T18:04:48.289Z,3.13
2022-12-06T18:07:18.092Z,3.17
2022-12-06T18:09:46.559Z,3.16
2022-12-06T18:12:16.423Z,3.18
2022-12-06T18:14:44.487Z,3.17
2022-12-06T18:17:12.923Z,3.13
2022-12-06T18:19:42.022Z,3.17
2022-12-06T18:22:11.420Z,3.19
2022-12-06T18:24:39.275Z,3.20
2022-12-06T18:27:07.955Z,3.12
2022-12-06T18:29:36.421Z,3.21
2022-12-06T18:32:04.842Z,3.20
2022-12-06T18:34:32.993Z,3.15
2022-12-06T18:37:01.020Z,3.17
2022-12-06T18:39:30.447Z,3.14
2022-12-06T18:41:58.626Z,3.13
2022-12-06T18:44:26.903Z,3.14
2022-12-06T18:46:54.785Z,3.17
2022-12-06T18:49:22.735Z,3.21
2022-12-06T18:51:50.760Z,3.16
2022-12-06T18:54:18.816Z,3.15
2022-12-06T18:56:48.076Z,3.11
2022-12-06T18:59:15.932Z,3.18
2022-12-06T19:01:43.924Z,3.13
2022-12-06T19:04:14.928Z,3.22
2022-12-06T19:06:44.790Z,3.28
2022-12-06T19:09:15.620Z,3.29
2022-12-06T19:11:45.910Z,3.36
2022-12-06T19:14:16.543Z,3.30
2022-12-06T19:16:46.340Z,3.32
2022-12-06T19:19:17.350Z,3.24
2022-12-06T19:21:46.682Z,3.30
2022-12-06T19:24:17.430Z,3.32
2022-12-06T19:26:46.047Z,3.24
2022-12-06T19:29:16.486Z,3.26
2022-12-06T19:31:44.433Z,3.31
2022-12-06T19:34:16.758Z,3.39
2022-12-06T19:36:45.769Z,3.37
2022-12-06T19:39:14.522Z,3.35
2022-12-06T19:42:00.977Z,3.33
2022-12-06T19:44:31.118Z,3.29
2022-12-06T19:46:59.879Z,3.40
2022-12-06T19:49:29.012Z,3.36
2022-12-06T19:51:57.356Z,3.38
2022-12-06T19:54:27.200Z,3.30
2022-12-06T19:56:57.028Z,3.29
2022-12-06T19:59:26.674Z,3.26
2022-12-06T20:01:58.248Z,3.31
2022-12-06T20:04:28.418Z,3.32
2022-12-06T20:06:57.083Z,3.28
2022-12-06T20:09:28.020Z,3.23
2022-12-06T20:12:02.995Z,3.28
2022-12-06T20:14:34.838Z,3.37
2022-12-06T20:17:05.664Z,3.32
2022-12-06T20:19:33.875Z,3.26
2022-12-06T20:22:01.925Z,3.16
2022-12-06T20:24:30.000Z,3.20
2022-12-06T20:26:57.931Z,3.24
2022-12-06T20:29:27.140Z,3.30
2022-12-06T20:31:58.076Z,3.29
2022-12-06T20:34:28.912Z,3.14
2022-12-06T20:36:57.244Z,3.14
2022-12-06T20:39:27.749Z,2.93
2022-12-06T20:41:55.716Z,2.92
2022-12-06T20:44:24.181Z,2.82
2022-12-06T20:46:53.591Z,2.80
2022-12-06T20:49:21.839Z,2.86
2022-12-06T20:51:53.463Z,2.84
2022-12-06T20:54:23.116Z,2.84
2022-12-06T20:56:53.501Z,2.86
2022-12-06T20:59:21.936Z,3.00
2022-12-06T21:01:50.127Z,2.86
2022-12-06T21:04:18.473Z,2.89
2022-12-06T21:06:46.421Z,2.98
2022-12-06T21:09:15.693Z,2.93
2022-12-06T21:11:43.558Z,2.87
2022-12-06T21:14:13.678Z,2.93
2022-12-06T21:16:42.868Z,2.96
2022-12-06T21:19:14.385Z,2.99
2022-12-06T21:21:45.386Z,3.02
2022-12-06T21:24:17.701Z,2.99
2022-12-06T21:26:46.114Z,3.09
2022-12-06T21:29:16.777Z,3.12
2022-12-06T21:31:44.805Z,3.05
2022-12-06T21:34:13.624Z,2.95
2022-12-06T21:36:42.099Z,3.09
2022-12-06T21:39:11.716Z,3.01
2022-12-06T21:41:41.519Z,3.11
2022-12-06T21:44:09.522Z,3.11
2022-12-06T21:46:37.501Z,3.12
2022-12-06T21:49:05.656Z,3.10
2022-12-06T21:51:33.804Z,3.14
2022-12-06T21:54:01.925Z,2.97
2022-12-06T21:56:31.650Z,3.03
2022-12-06T21:59:01.526Z,3.01
2022-12-06T22:01:31.147Z,2.99
2022-12-06T22:04:01.125Z,2.95
2022-12-06T22:06:29.041Z,2.98
2022-12-06T22:08:58.650Z,3.05
2022-12-06T22:11:26.701Z,2.98
2022-12-06T22:13:54.578Z,3.00
2022-12-06T22:16:23.877Z,3.05
2022-12-06T22:18:54.943Z,3.00
2022-12-06T22:21:25.415Z,3.03
2022-12-06T22:23:53.792Z,3.05
2022-12-06T22:26:23.717Z,3.04
2022-12-06T22:28:51.849Z,2.95
2022-12-06T22:31:21.821Z,3.06
2022-12-06T22:33:52.489Z,2.96
2022-12-06T22:36:22.433Z,2.94
2022-12-06T22:38:51.176Z,2.90
2022-12-06T22:41:19.566Z,2.92
2022-12-06T22:43:50.819Z,2.99
2022-12-06T22:46:19.202Z,2.96
2022-12-06T22:48:47.826Z,3.04
2022-12-06T22:51:19.196Z,2.97
2022-12-06T22:53:48.715Z,3.00
2022-12-06T22:56:16.877Z,2.95
2022-12-06T22:58:45.063Z,2.94
2022-12-06T23:01:16.820Z,2.93
2022-12-06T23:03:45.689Z,2.91
2022-12-06T23:06:14.389Z,2.88
2022-12-06T23:08:44.060Z,2.84
2022-12-06T23:11:14.152Z,2.88
2022-12-06T23:13:42.155Z,2.83
2022-12-06T23:16:13.128Z,2.78
2022-12-06T23:18:41.330Z,2.77
2022-12-06T23:21:11.922Z,2.64
2022-12-06T23:23:41.259Z,2.51
2022-12-06T23:26:13.625Z,2.43
2022-12-06T23:28:41.764Z,2.37
2022-12-06T23:31:12.870Z,2.30
2022-12-06T23:33:41.478Z,2.28
2022-12-06T23:36:12.303Z,2.26
2022-12-06T23:38:40.931Z,2.24
2022-12-06T23:41:12.547Z,2.13
2022-12-06T23:43:41.122Z,2.03
2022-12-06T23:46:11.855Z,2.13
2022-12-06T23:48:40.771Z,2.10
2022-12-06T23:51:10.541Z,2.14
2022-12-06T23:53:39.203Z,2.10
2022-12-06T23:56:11.058Z,2.20
2022-12-06T23:58:39.468Z,2.19
